Time;durP1;ratioP1;P1;durP2;ratioP2;P2;SDS_P1;SDS_P2;PMS_P1;PMS_P2;Temp;Humidity;BMP_temperature;BMP_pressure;BME280_temperature;BME280_humidity;BME280_pressure;Samples;Min_cycle;Max_cycle;Signal;HPM_P1;HPM_P2
2023/10/26 00:00:31;;;;;;;;;;;;;;;7.75;100.00;98933.02;111302;1212;124670;-65
2023/10/26 00:02:56;;;;;;;;;;;;;;;7.76;100.00;98928.33;111499;1212;97672;-65
2023/10/26 00:05:21;;;;;;;;;;;;;;;7.76;100.00;98930.81;111278;1209;125397;-65
2023/10/26 00:07:47;;;;;;;;;;;;;;;7.76;100.00;98925.33;111498;1209;97614;-65
2023/10/26 00:10:12;;;;;;;;;;;;;;;7.78;100.00;98925.74;111431;1212;97628;-62
2023/10/26 00:12:37;;;;;;;;;;;;;;;7.81;100.00;98923.39;110920;1222;124537;-65
2023/10/26 00:15:02;;;;;;;;;;;;;;;7.84;100.00;98916.44;111433;1212;96481;-63
2023/10/26 00:17:27;;;;;;;;;;;;;;;7.85;100.00;98917.65;111328;1209;125436;-65
2023/10/26 00:19:53;;;;;;;;;;;;;;;7.85;100.00;98916.40;111501;1212;97445;-65
2023/10/26 00:22:18;;;;;;;;;;;;;;;7.82;100.00;98913.55;111389;1212;97624;-65
2023/10/26 00:24:44;;;;;;;;;;;;;;;7.80;100.00;98912.42;111402;1209;124523;-62
2023/10/26 00:27:09;;;;;;;;;;;;;;;7.79;100.00;98908.21;110931;1212;99097;-63
2023/10/26 00:29:34;;;;;;;;;;;;;;;7.77;100.00;98913.70;110803;1212;125127;-63
2023/10/26 00:31:59;;;;;;;;;;;;;;;7.76;100.00;98919.63;111399;1212;98566;-63
2023/10/26 00:34:24;;;;;;;;;;;;;;;7.76;100.00;98919.98;111423;1210;98232;-63
2023/10/26 00:36:49;;;;;;;;;;;;;;;7.75;100.00;98922.88;111425;1210;125347;-62
2023/10/26 00:39:14;;;;;;;;;;;;;;;7.75;100.00;98926.08;111368;1220;97725;-64
2023/10/26 00:41:41;;;;;;;;;;;;;;;7.73;100.00;98927.06;111370;1209;126361;-63
2023/10/26 00:44:06;;;;;;;;;;;;;;;7.74;100.00;98925.98;111442;1209;97600;-63
2023/10/26 00:46:31;;;;;;;;;;;;;;;7.76;100.00;98920.29;111390;1212;97658;-63
2023/10/26 00:48:57;;;;;;;;;;;;;;;7.78;100.00;98910.22;111377;1209;124816;-63
2023/10/26 00:51:22;;;;;;;;;;;;;;;7.77;100.00;98897.48;111000;1212;97642;-63
2023/10/26 00:53:48;;;;;;;;;;;;;;;7.77;100.00;98893.23;111079;1210;126100;-63
2023/10/26 00:56:14;;;;;;;;;;;;;;;7.77;100.00;98898.73;111257;1212;106385;-64
2023/10/26 00:58:40;;;;;;;;;;;;;;;7.74;100.00;98900.00;111386;1221;97624;-64
2023/10/26 01:01:05;;;;;;;;;;;;;;;7.75;100.00;98895.16;111509;1212;97805;-64
2023/10/26 01:03:30;;;;;;;;;;;;;;;7.76;100.00;98882.82;111397;1212;97600;-64
2023/10/26 01:05:55;;;;;;;;;;;;;;;7.72;100.00;98883.38;111278;1212;124741;-64
2023/10/26 01:08:21;;;;;;;;;;;;;;;7.70;100.00;98881.55;111447;1215;97740;-64
2023/10/26 01:10:46;;;;;;;;;;;;;;;7.67;100.00;98877.65;111308;1212;125947;-64
2023/10/26 01:13:12;;;;;;;;;;;;;;;7.66;100.00;98877.02;111483;1208;97761;-64
2023/10/26 01:15:37;;;;;;;;;;;;;;;7.66;100.00;98874.16;111388;1212;97666;-64
2023/10/26 01:18:03;;;;;;;;;;;;;;;7.66;100.00;98868.69;111300;1209;125315;-63
2023/10/26 01:20:28;;;;;;;;;;;;;;;7.66;100.00;98869.02;111470;1221;97719;-64
2023/10/26 01:22:53;;;;;;;;;;;;;;;7.66;100.00;98866.19;111308;1209;124838;-64
2023/10/26 01:25:18;;;;;;;;;;;;;;;7.66;100.00;98865.25;111472;1209;100788;-64
2023/10/26 01:27:43;;;;;;;;;;;;;;;7.67;100.00;98866.86;111406;1212;97653;-64
2023/10/26 01:30:09;;;;;;;;;;;;;;;7.63;100.00;98854.61;111362;1212;125288;-64
2023/10/26 01:32:34;;;;;;;;;;;;;;;7.60;100.00;98853.22;111368;1212;97681;-64
2023/10/26 01:34:59;;;;;;;;;;;;;;;7.59;100.00;98852.36;111340;1212;124862;-64
2023/10/26 01:37:24;;;;;;;;;;;;;;;7.60;100.00;98849.64;111428;1209;97616;-64
2023/10/26 01:39:49;;;;;;;;;;;;;;;7.61;100.00;98850.65;111420;1209;97743;-64
2023/10/26 01:42:14;;;;;;;;;;;;;;;7.61;100.00;98847.64;111343;1212;124490;-63
2023/10/26 01:44:40;;;;;;;;;;;;;;;7.60;100.00;98838.81;111420;1212;97678;-64
2023/10/26 01:47:05;;;;;;;;;;;;;;;7.61;100.00;98832.52;111358;1210;125508;-64
2023/10/26 01:49:30;;;;;;;;;;;;;;;7.61;100.00;98836.27;111368;1210;97577;-64
2023/10/26 01:51:56;;;;;;;;;;;;;;;7.59;100.00;98829.62;111403;1212;97613;-64
2023/10/26 01:54:21;;;;;;;;;;;;;;;7.60;100.00;98828.16;110999;1212;125190;-62
2023/10/26 01:56:46;;;;;;;;;;;;;;;7.60;100.00;98826.05;110777;1210;97578;-62
2023/10/26 01:59:11;;;;;;;;;;;;;;;7.59;100.00;98825.55;110799;1212;125753;-62
2023/10/26 02:01:36;;;;;;;;;;;;;;;7.61;100.00;98822.59;110854;1210;99506;-63
2023/10/26 02:04:02;;;;;;;;;;;;;;;7.61;100.00;98820.08;110896;1220;97677;-63
2023/10/26 02:06:27;;;;;;;;;;;;;;;7.62;100.00;98819.34;110690;1209;124570;-64
2023/10/26 02:08:52;;;;;;;;;;;;;;;7.61;100.00;98813.88;110878;1209;97938;-63
2023/10/26 02:11:17;;;;;;;;;;;;;;;7.60;100.00;98813.56;110967;1209;126104;-63
2023/10/26 02:13:43;;;;;;;;;;;;;;;7.60;100.00;98808.58;111368;1209;97594;-63
2023/10/26 02:16:08;;;;;;;;;;;;;;;7.62;100.00;98806.71;111485;1212;97619;-63
2023/10/26 02:18:33;;;;;;;;;;;;;;;7.63;100.00;98804.88;111279;1212;127153;-63
2023/10/26 02:21:00;;;;;;;;;;;;;;;7.65;100.00;98807.41;111428;1209;99219;-63
2023/10/26 02:23:25;;;;;;;;;;;;;;;7.68;100.00;98805.98;111229;1212;125128;-63
2023/10/26 02:25:51;;;;;;;;;;;;;;;7.70;100.00;98799.61;111422;1209;97702;-63
2023/10/26 02:28:16;;;;;;;;;;;;;;;7.73;100.00;98796.23;111443;1210;97690;-63
2023/10/26 02:30:45;;;;;;;;;;;;;;;7.75;100.00;98788.27;111253;1212;125109;-63
2023/10/26 02:33:10;;;;;;;;;;;;;;;7.78;100.00;98789.17;111368;1210;97701;-63
2023/10/26 02:35:37;;;;;;;;;;;;;;;7.81;100.00;98788.94;111289;1208;125315;-63
2023/10/26 02:38:03;;;;;;;;;;;;;;;7.85;100.00;98780.20;111352;1212;97584;-63
2023/10/26 02:40:28;;;;;;;;;;;;;;;7.88;100.00;98773.80;111460;1209;97797;-64
2023/10/26 02:42:53;;;;;;;;;;;;;;;7.90;100.00;98765.27;111241;1209;125485;-63
2023/10/26 02:45:18;;;;;;;;;;;;;;;7.92;100.00;98761.58;111473;1212;97635;-63
2023/10/26 02:47:44;;;;;;;;;;;;;;;7.94;100.00;98753.11;111325;1209;125251;-63
2023/10/26 02:50:09;;;;;;;;;;;;;;;7.95;100.00;98746.51;111386;1209;97703;-64
2023/10/26 02:52:35;;;;;;;;;;;;;;;7.93;100.00;98744.66;111437;1209;97619;-63
2023/10/26 02:55:01;;;;;;;;;;;;;;;7.93;100.00;98746.06;111295;1212;124364;-63
2023/10/26 02:57:26;;;;;;;;;;;;;;;7.96;100.00;98746.58;111438;1209;97601;-63
2023/10/26 02:59:51;;;;;;;;;;;;;;;7.98;100.00;98741.15;111164;1209;124683;-64
2023/10/26 03:02:16;;;;;;;;;;;;;;;7.99;100.00;98739.26;110914;1209;99041;-63
2023/10/26 03:04:42;;;;;;;;;;;;;;;8.01;100.00;98736.98;110778;1213;125867;-63
2023/10/26 03:07:09;;;;;;;;;;;;;;;8.02;100.00;98736.40;111029;1209;97696;-63
2023/10/26 03:09:34;;;;;;;;;;;;;;;8.06;100.00;98736.36;110838;1215;99076;-64
2023/10/26 03:12:00;;;;;;;;;;;;;;;8.09;100.00;98734.20;110856;1212;126361;-63
2023/10/26 03:14:25;;;;;;;;;;;;;;;8.12;100.00;98737.55;110852;1209;97702;-63
2023/10/26 03:16:50;;;;;;;;;;;;;;;8.16;100.00;98741.38;110844;1212;125161;-63
2023/10/26 03:19:15;;;;;;;;;;;;;;;8.19;100.00;98739.23;110840;1212;97698;-63
2023/10/26 03:21:40;;;;;;;;;;;;;;;8.22;100.00;98745.48;110910;1208;98443;-63
2023/10/26 03:24:06;;;;;;;;;;;;;;;8.26;100.00;98740.61;110809;1212;124573;-63
2023/10/26 03:26:31;;;;;;;;;;;;;;;8.27;100.00;98738.04;110873;1209;97784;-63
2023/10/26 03:28:56;;;;;;;;;;;;;;;8.28;100.00;98734.43;110914;1225;124871;-63
2023/10/26 03:31:21;;;;;;;;;;;;;;;8.27;100.00;98733.91;110905;1209;98458;-63
2023/10/26 03:33:46;;;;;;;;;;;;;;;8.28;100.00;98730.86;110931;1209;97607;-63
2023/10/26 03:36:16;;;;;;;;;;;;;;;8.30;100.00;98727.52;110802;1212;125497;-63
2023/10/26 03:38:41;;;;;;;;;;;;;;;8.32;100.00;98723.48;110905;1212;111686;-64
2023/10/26 03:41:07;;;;;;;;;;;;;;;8.34;100.00;98721.75;110788;1210;125043;-64
2023/10/26 03:43:32;;;;;;;;;;;;;;;8.36;100.00;98715.77;110911;1221;97590;-63
2023/10/26 03:45:57;;;;;;;;;;;;;;;8.38;100.00;98717.00;110874;1209;97702;-63
2023/10/26 03:48:23;;;;;;;;;;;;;;;8.42;100.00;98715.74;110782;1212;125348;-63
2023/10/26 03:50:48;;;;;;;;;;;;;;;8.47;100.00;98712.38;110876;1228;108087;-63
2023/10/26 03:53:13;;;;;;;;;;;;;;;8.50;100.00;98710.23;110727;1212;126061;-63
2023/10/26 03:55:39;;;;;;;;;;;;;;;8.51;100.00;98704.30;110939;1209;99015;-63
2023/10/26 03:58:04;;;;;;;;;;;;;;;8.54;100.00;98708.36;110894;1212;97599;-63
2023/10/26 04:00:30;;;;;;;;;;;;;;;8.56;100.00;98705.35;110860;1212;125188;-64
2023/10/26 04:02:55;;;;;;;;;;;;;;;8.58;100.00;98703.63;110909;1209;97590;-63
2023/10/26 04:05:20;;;;;;;;;;;;;;;8.60;100.00;98700.83;110786;1212;126184;-63
2023/10/26 04:07:45;;;;;;;;;;;;;;;8.63;100.00;98697.23;110936;1216;97829;-63
2023/10/26 04:10:10;;;;;;;;;;;;;;;8.67;100.00;98695.52;110812;1212;96496;-63
2023/10/26 04:12:35;;;;;;;;;;;;;;;8.71;100.00;98682.48;110804;1209;125465;-64
2023/10/26 04:15:01;;;;;;;;;;;;;;;8.72;100.00;98674.94;110851;1212;96433;-63
2023/10/26 04:17:27;;;;;;;;;;;;;;;8.72;100.00;98672.44;110800;1223;125006;-63
2023/10/26 04:19:52;;;;;;;;;;;;;;;8.73;100.00;98663.26;110929;1212;97646;-63
2023/10/26 04:22:17;;;;;;;;;;;;;;;8.76;100.00;98659.33;110834;1212;99244;-63
2023/10/26 04:24:42;;;;;;;;;;;;;;;8.79;100.00;98650.55;110839;1212;124843;-63
2023/10/26 04:27:07;;;;;;;;;;;;;;;8.82;100.00;98648.62;110867;1209;97600;-63
2023/10/26 04:29:33;;;;;;;;;;;;;;;8.83;100.00;98646.56;110860;1212;126025;-63
2023/10/26 04:31:58;;;;;;;;;;;;;;;8.86;100.00;98643.17;110893;1212;97623;-64
2023/10/26 04:34:23;;;;;;;;;;;;;;;8.87;100.00;98642.02;110863;1208;98266;-63
2023/10/26 04:36:48;;;;;;;;;;;;;;;8.89;100.00;98638.34;110805;1213;124958;-63
2023/10/26 04:39:15;;;;;;;;;;;;;;;8.91;100.00;98633.56;110861;1210;97784;-66
2023/10/26 04:41:41;;;;;;;;;;;;;;;8.92;100.00;98627.96;110873;1212;125150;-68
2023/10/26 04:44:06;;;;;;;;;;;;;;;8.94;100.00;98624.42;110877;1212;101076;-68
2023/10/26 04:46:32;;;;;;;;;;;;;;;8.97;100.00;98625.12;110894;1209;97607;-68
2023/10/26 04:48:57;;;;;;;;;;;;;;;8.99;100.00;98625.15;110909;1213;124636;-68
2023/10/26 04:51:22;;;;;;;;;;;;;;;9.01;100.00;98624.13;110862;1212;97611;-68
2023/10/26 04:53:47;;;;;;;;;;;;;;;9.04;100.00;98630.69;110864;1209;124582;-68
2023/10/26 04:56:12;;;;;;;;;;;;;;;9.08;100.00;98632.02;110906;1212;99244;-68
2023/10/26 04:58:43;;;;;;;;;;;;;;;9.12;100.00;98631.56;110854;1212;97750;-67
2023/10/26 05:01:08;;;;;;;;;;;;;;;9.14;100.00;98629.13;110769;1208;97571;-68
2023/10/26 05:03:34;;;;;;;;;;;;;;;9.16;100.00;98627.88;110853;1212;100652;-67
2023/10/26 05:05:59;;;;;;;;;;;;;;;9.18;100.00;98622.73;110860;1209;125854;-67
2023/10/26 05:08:24;;;;;;;;;;;;;;;9.17;100.00;98611.77;110767;1226;97711;-68
2023/10/26 05:10:49;;;;;;;;;;;;;;;9.13;100.00;98610.98;110818;1212;125929;-68
2023/10/26 05:13:15;;;;;;;;;;;;;;;9.15;100.00;98611.06;110840;1209;97570;-69
2023/10/26 05:15:40;;;;;;;;;;;;;;;9.15;100.00;98608.20;110855;1210;97603;-68
2023/10/26 05:18:05;;;;;;;;;;;;;;;9.16;100.00;98604.23;110764;1212;124683;-68
2023/10/26 05:20:32;;;;;;;;;;;;;;;9.16;100.00;98602.27;110856;1208;97609;-68
2023/10/26 05:22:57;;;;;;;;;;;;;;;9.16;100.00;98596.18;110750;1212;125338;-68
2023/10/26 05:25:23;;;;;;;;;;;;;;;9.18;100.00;98599.27;110941;1209;98234;-68
2023/10/26 05:27:48;;;;;;;;;;;;;;;9.19;100.00;98597.18;110845;1212;97718;-68
2023/10/26 05:30:13;;;;;;;;;;;;;;;9.20;100.00;98597.85;110766;1211;125621;-68
2023/10/26 05:32:39;;;;;;;;;;;;;;;9.22;100.00;98595.23;110772;1209;97622;-68
2023/10/26 05:35:05;;;;;;;;;;;;;;;9.24;100.00;98595.77;110707;1212;127220;-68
2023/10/26 05:37:31;;;;;;;;;;;;;;;9.27;100.00;98596.33;110844;1209;97731;-68
2023/10/26 05:39:56;;;;;;;;;;;;;;;9.26;100.00;98592.27;110854;1228;98125;-68
2023/10/26 05:42:21;;;;;;;;;;;;;;;9.25;100.00;98586.64;110774;1212;126638;-68
2023/10/26 05:44:46;;;;;;;;;;;;;;;9.24;100.00;98583.50;110917;1208;97702;-68
2023/10/26 05:47:11;;;;;;;;;;;;;;;9.24;100.00;98581.89;110795;1220;124768;-68
2023/10/26 05:49:37;;;;;;;;;;;;;;;9.23;100.00;98582.84;110930;1212;97705;-68
2023/10/26 05:52:03;;;;;;;;;;;;;;;9.25;100.00;98584.50;110902;1222;97597;-68
2023/10/26 05:54:28;;;;;;;;;;;;;;;9.27;100.00;98587.73;110869;1212;124866;-68
2023/10/26 05:56:53;;;;;;;;;;;;;;;9.28;100.00;98591.96;110815;1212;111813;-68
2023/10/26 05:59:18;;;;;;;;;;;;;;;9.25;100.00;98591.60;110751;1212;125454;-68
2023/10/26 06:01:43;;;;;;;;;;;;;;;9.26;100.00;98593.48;110939;1212;97591;-68
2023/10/26 06:04:09;;;;;;;;;;;;;;;9.29;100.00;98592.21;110909;1212;97676;-68
2023/10/26 06:06:34;;;;;;;;;;;;;;;9.28;100.00;98589.27;110830;1208;124599;-68
2023/10/26 06:09:00;;;;;;;;;;;;;;;9.26;100.00;98587.08;110808;1212;97787;-69
2023/10/26 06:11:25;;;;;;;;;;;;;;;9.26;100.00;98585.14;110740;1212;125569;-68
2023/10/26 06:13:51;;;;;;;;;;;;;;;9.29;100.00;98583.00;110862;1225;111501;-68
2023/10/26 06:16:17;;;;;;;;;;;;;;;9.30;100.00;98584.29;110855;1212;97648;-68
2023/10/26 06:18:42;;;;;;;;;;;;;;;9.31;100.00;98580.50;110781;1209;124597;-69
2023/10/26 06:21:08;;;;;;;;;;;;;;;9.30;100.00;98579.83;110836;1212;97533;-68
2023/10/26 06:23:33;;;;;;;;;;;;;;;9.32;100.00;98578.77;110785;1212;124582;-68
2023/10/26 06:25:58;;;;;;;;;;;;;;;9.35;100.00;98576.81;110914;1212;97622;-68
2023/10/26 06:28:28;;;;;;;;;;;;;;;9.36;100.00;98574.96;110887;1208;97783;-68
2023/10/26 06:30:53;;;;;;;;;;;;;;;9.34;100.00;98577.23;110826;1212;124789;-68
2023/10/26 06:33:19;;;;;;;;;;;;;;;9.34;100.00;98572.27;110880;1212;97700;-68
2023/10/26 06:35:44;;;;;;;;;;;;;;;9.33;100.00;98570.91;110889;1209;124584;-68
2023/10/26 06:38:09;;;;;;;;;;;;;;;9.34;100.00;98572.25;110860;1209;97680;-68
2023/10/26 06:40:34;;;;;;;;;;;;;;;9.38;100.00;98569.66;110863;1208;97642;-67
2023/10/26 06:43:00;;;;;;;;;;;;;;;9.43;100.00;98563.77;110719;1212;126070;-68
2023/10/26 06:45:25;;;;;;;;;;;;;;;9.47;100.00;98566.71;110689;1208;97754;-67
2023/10/26 06:47:50;;;;;;;;;;;;;;;9.48;100.00;98561.86;110806;1212;124604;-68
2023/10/26 06:50:15;;;;;;;;;;;;;;;9.51;100.00;98562.67;110739;1212;97650;-68
2023/10/26 06:52:41;;;;;;;;;;;;;;;9.54;100.00;98562.65;110869;1212;97696;-68
2023/10/26 06:55:06;;;;;;;;;;;;;;;9.58;100.00;98556.61;110673;1221;124552;-68
2023/10/26 06:57:34;;;;;;;;;;;;;;;9.61;100.00;98556.39;110870;1209;97709;-68
2023/10/26 07:00:00;;;;;;;;;;;;;;;9.63;100.00;98549.11;110762;1212;124542;-68
2023/10/26 07:02:25;;;;;;;;;;;;;;;9.63;100.00;98549.45;110809;1209;98746;-68
2023/10/26 07:04:50;;;;;;;;;;;;;;;9.62;100.00;98548.31;110718;1212;125423;-68
2023/10/26 07:07:16;;;;;;;;;;;;;;;9.59;100.00;98544.58;110751;1209;97718;-68
2023/10/26 07:09:41;;;;;;;;;;;;;;;9.56;100.00;98543.56;110847;1212;97692;-68
2023/10/26 07:12:07;;;;;;;;;;;;;;;9.56;100.00;98548.02;110728;1212;124646;-67
2023/10/26 07:14:32;;;;;;;;;;;;;;;9.56;100.00;98548.04;110803;1212;98037;-68
2023/10/26 07:16:57;;;;;;;;;;;;;;;9.58;100.00;98550.23;110857;1208;125579;-67
2023/10/26 07:19:22;;;;;;;;;;;;;;;9.62;100.00;98551.52;110527;1212;97652;-67
2023/10/26 07:21:48;;;;;;;;;;;;;;;9.67;100.00;98551.53;110154;1212;98315;-67
2023/10/26 07:24:13;;;;;;;;;;;;;;;9.68;100.00;98550.89;110613;1209;124687;-68
2023/10/26 07:26:38;;;;;;;;;;;;;;;9.69;100.00;98549.27;110785;1212;97719;-68
2023/10/26 07:29:04;;;;;;;;;;;;;;;9.71;100.00;98549.62;110671;1208;124930;-68
2023/10/26 07:31:29;;;;;;;;;;;;;;;9.74;100.00;98551.88;110731;1212;97615;-68
2023/10/26 07:33:54;;;;;;;;;;;;;;;9.77;100.00;98550.92;110630;1210;97652;-68
2023/10/26 07:36:19;;;;;;;;;;;;;;;9.81;100.00;98555.86;110615;1225;124553;-68
2023/10/26 07:38:44;;;;;;;;;;;;;;;9.84;100.00;98556.33;110860;1212;97677;-68
2023/10/26 07:41:10;;;;;;;;;;;;;;;9.85;100.00;98560.53;110765;1210;124788;-69
2023/10/26 07:43:35;;;;;;;;;;;;;;;9.89;100.00;98562.57;110835;1220;97591;-70
2023/10/26 07:46:01;;;;;;;;;;;;;;;9.92;100.00;98563.05;110854;1212;97617;-69
2023/10/26 07:48:26;;;;;;;;;;;;;;;9.95;100.00;98562.27;110491;1209;125325;-69
2023/10/26 07:50:51;;;;;;;;;;;;;;;9.96;100.00;98559.33;110891;1212;97696;-67
2023/10/26 07:53:17;;;;;;;;;;;;;;;9.97;100.00;98561.79;110673;1212;125515;-67
2023/10/26 07:55:44;;;;;;;;;;;;;;;9.99;100.00;98559.48;110811;1209;97792;-70
2023/10/26 07:58:09;;;;;;;;;;;;;;;10.01;100.00;98559.00;110749;1208;111464;-70
2023/10/26 08:00:37;;;;;;;;;;;;;;;10.00;100.00;98561.56;110619;1212;125057;-70
2023/10/26 08:03:02;;;;;;;;;;;;;;;10.00;100.00;98557.79;110553;1209;98474;-67
2023/10/26 08:05:27;;;;;;;;;;;;;;;10.00;100.00;98558.70;110719;1212;126209;-67
2023/10/26 08:07:52;;;;;;;;;;;;;;;10.00;100.00;98555.45;110691;1212;97614;-67
2023/10/26 08:10:18;;;;;;;;;;;;;;;10.01;100.00;98558.94;110688;1212;97626;-68
2023/10/26 08:12:43;;;;;;;;;;;;;;;10.04;100.00;98558.20;110500;1212;125379;-67
2023/10/26 08:15:08;;;;;;;;;;;;;;;10.07;100.00;98562.45;110679;1212;98670;-67
2023/10/26 08:17:36;;;;;;;;;;;;;;;10.09;100.00;98555.88;110679;1208;124947;-68
2023/10/26 08:20:07;;;;;;;;;;;;;;;10.09;100.00;98556.06;110759;1212;107041;-67
2023/10/26 08:22:32;;;;;;;;;;;;;;;10.09;100.00;98558.56;110674;1209;97688;-69
2023/10/26 08:24:57;;;;;;;;;;;;;;;10.14;100.00;98557.52;110638;1212;124863;-68
2023/10/26 08:27:23;;;;;;;;;;;;;;;10.15;100.00;98557.05;110830;1212;97613;-68
2023/10/26 08:29:49;;;;;;;;;;;;;;;10.17;100.00;98555.48;110684;1208;126359;-68
2023/10/26 08:32:15;;;;;;;;;;;;;;;10.17;100.00;98555.27;110784;1225;100607;-69
2023/10/26 08:34:40;;;;;;;;;;;;;;;10.18;100.00;98556.48;110733;1208;97633;-68
2023/10/26 08:37:05;;;;;;;;;;;;;;;10.18;100.00;98555.39;110651;1209;124589;-68
2023/10/26 08:39:30;;;;;;;;;;;;;;;10.16;100.00;98553.58;110771;1212;98103;-68
2023/10/26 08:41:59;;;;;;;;;;;;;;;10.15;100.00;98558.64;110680;1208;125017;-68
2023/10/26 08:44:26;;;;;;;;;;;;;;;10.13;100.00;98556.30;110762;1209;111538;-68
2023/10/26 08:46:57;;;;;;;;;;;;;;;10.14;100.00;98561.09;110688;1208;125264;-68
2023/10/26 08:49:26;;;;;;;;;;;;;;;10.14;100.00;98558.77;110687;1213;108306;-68
2023/10/26 08:51:51;;;;;;;;;;;;;;;10.14;100.00;98557.46;110745;1212;97713;-68
2023/10/26 08:54:16;;;;;;;;;;;;;;;10.18;100.00;98558.27;110627;1208;125330;-68
2023/10/26 08:56:41;;;;;;;;;;;;;;;10.22;100.00;98559.61;110884;1208;97691;-68
2023/10/26 08:59:06;;;;;;;;;;;;;;;10.25;100.00;98559.73;110650;1212;125072;-68
2023/10/26 09:01:32;;;;;;;;;;;;;;;10.28;100.00;98557.73;110753;1223;100134;-69
2023/10/26 09:03:57;;;;;;;;;;;;;;;10.31;100.00;98557.09;110676;1212;97729;-68
2023/10/26 09:06:22;;;;;;;;;;;;;;;10.33;100.00;98560.14;110715;1208;124749;-69
2023/10/26 09:09:01;;;;;;;;;;;;;;;10.34;100.00;98555.81;110839;1212;97619;-70
2023/10/26 09:11:26;;;;;;;;;;;;;;;10.34;100.00;98555.48;110666;1224;125211;-69
2023/10/26 09:13:52;;;;;;;;;;;;;;;10.31;100.00;98555.46;110822;1208;97770;-69
2023/10/26 09:16:18;;;;;;;;;;;;;;;10.29;100.00;98554.09;110895;1224;97591;-69
2023/10/26 09:18:53;;;;;;;;;;;;;;;10.30;100.00;98552.41;110693;1212;125457;-69
2023/10/26 09:21:18;;;;;;;;;;;;;;;10.33;100.00;98551.04;110844;1212;97684;-70
2023/10/26 09:23:45;;;;;;;;;;;;;;;10.34;100.00;98548.48;110760;1208;126479;-69
2023/10/26 09:26:10;;;;;;;;;;;;;;;10.35;100.00;98550.54;110881;1212;97930;-69
2023/10/26 09:28:55;;;;;;;;;;;;;;;10.36;100.00;98551.21;110752;1212;97705;-69
2023/10/26 09:31:21;;;;;;;;;;;;;;;10.37;100.00;98548.42;110708;1212;99603;-68
2023/10/26 09:33:47;;;;;;;;;;;;;;;10.41;100.00;98550.60;110724;1211;97639;-68
2023/10/26 09:36:14;;;;;;;;;;;;;;;10.42;100.00;98554.08;110617;1212;124785;-68
2023/10/26 09:38:39;;;;;;;;;;;;;;;10.40;100.00;98553.76;110784;1209;97629;-69
2023/10/26 09:41:06;;;;;;;;;;;;;;;10.38;100.00;98554.23;110683;1212;125166;-69
2023/10/26 09:43:31;;;;;;;;;;;;;;;10.38;100.00;98551.95;110841;1212;97931;-69
2023/10/26 09:45:57;;;;;;;;;;;;;;;10.37;100.00;98550.59;110797;1212;106112;-69
2023/10/26 09:48:22;;;;;;;;;;;;;;;10.37;100.00;98550.92;110668;1212;126750;-69
2023/10/26 09:50:48;;;;;;;;;;;;;;;10.41;100.00;98550.46;110907;1212;97672;-69
2023/10/26 09:53:14;;;;;;;;;;;;;;;10.43;100.00;98550.80;110639;1208;125344;-70
2023/10/26 09:55:41;;;;;;;;;;;;;;;10.43;100.00;98546.73;110751;1212;97772;-69
2023/10/26 09:58:08;;;;;;;;;;;;;;;10.45;100.00;98547.48;110759;1212;97615;-68
2023/10/26 10:00:34;;;;;;;;;;;;;;;10.45;100.00;98544.61;110592;1212;125531;-70
2023/10/26 10:03:10;;;;;;;;;;;;;;;10.44;100.00;98544.13;110780;1209;98962;-68
2023/10/26 10:05:37;;;;;;;;;;;;;;;10.48;100.00;98546.19;110828;1212;124941;-70
2023/10/26 10:08:02;;;;;;;;;;;;;;;10.47;100.00;98553.17;110804;1212;98471;-69
2023/10/26 10:10:27;;;;;;;;;;;;;;;10.49;100.00;98557.17;110797;1208;98767;-69
2023/10/26 10:12:52;;;;;;;;;;;;;;;10.50;100.00;98552.62;110546;1216;125341;-67
2023/10/26 10:15:31;;;;;;;;;;;;;;;10.49;100.00;98554.47;110632;1212;97584;-67
2023/10/26 10:17:56;;;;;;;;;;;;;;;10.53;100.00;98551.27;110613;1208;124791;-69
2023/10/26 10:20:21;;;;;;;;;;;;;;;10.55;100.00;98550.98;110599;1214;97576;-69
2023/10/26 10:22:47;;;;;;;;;;;;;;;10.57;100.00;98547.23;110537;1208;98014;-69
2023/10/26 10:25:13;;;;;;;;;;;;;;;10.58;100.00;98544.45;110793;1208;125176;-69
2023/10/26 10:27:47;;;;;;;;;;;;;;;10.61;100.00;98542.79;110635;1212;99059;-69
2023/10/26 10:30:13;;;;;;;;;;;;;;;10.65;100.00;98542.29;110584;1212;125049;-68
2023/10/26 10:32:47;;;;;;;;;;;;;;;10.70;100.00;98544.23;110652;1212;99288;-69
2023/10/26 10:35:14;;;;;;;;;;;;;;;10.77;100.00;98546.58;110500;1212;127205;-69
2023/10/26 10:37:59;;;;;;;;;;;;;;;10.81;100.00;98547.17;110632;1212;97727;-69
2023/10/26 10:40:25;;;;;;;;;;;;;;;10.84;100.00;98543.02;110650;1212;96434;-69
2023/10/26 10:42:50;;;;;;;;;;;;;;;10.85;100.00;98542.06;110768;1212;125004;-69
2023/10/26 10:45:16;;;;;;;;;;;;;;;10.85;100.00;98541.84;110744;1209;97695;-69
2023/10/26 10:47:43;;;;;;;;;;;;;;;10.85;100.00;98542.96;110600;1211;125333;-69
2023/10/26 10:50:14;;;;;;;;;;;;;;;10.85;100.00;98540.75;110623;1208;97606;-68
2023/10/26 10:52:40;;;;;;;;;;;;;;;10.85;100.00;98538.79;110651;1212;111556;-69
2023/10/26 10:55:06;;;;;;;;;;;;;;;10.85;100.00;98538.45;110620;1212;124880;-68
2023/10/26 10:57:31;;;;;;;;;;;;;;;10.83;100.00;98539.52;110826;1212;97581;-68
2023/10/26 10:59:56;;;;;;;;;;;;;;;10.82;100.00;98542.95;110660;1212;126405;-69
2023/10/26 11:02:21;;;;;;;;;;;;;;;10.83;100.00;98540.57;110772;1208;96480;-68
2023/10/26 11:04:57;;;;;;;;;;;;;;;10.82;100.00;98535.50;110776;1208;107297;-68
2023/10/26 11:07:26;;;;;;;;;;;;;;;10.81;100.00;98540.01;110542;1208;98449;-68
2023/10/26 11:09:55;;;;;;;;;;;;;;;10.83;100.00;98533.08;110776;1212;97718;-68
2023/10/26 11:12:20;;;;;;;;;;;;;;;10.83;100.00;98533.45;110658;1212;125884;-68
2023/10/26 11:14:49;;;;;;;;;;;;;;;10.84;100.00;98532.08;110687;1212;97652;-69
2023/10/26 11:17:15;;;;;;;;;;;;;;;10.87;100.00;98531.00;110589;1209;125171;-68
2023/10/26 11:19:40;;;;;;;;;;;;;;;10.88;100.00;98530.69;110793;1212;98105;-68
2023/10/26 11:22:06;;;;;;;;;;;;;;;10.89;100.00;98530.45;110414;1212;97892;-68
2023/10/26 11:24:31;;;;;;;;;;;;;;;10.87;100.00;98529.68;110402;1213;125568;-68
2023/10/26 11:27:10;;;;;;;;;;;;;;;10.88;100.00;98531.59;110576;1220;98163;-68
2023/10/26 11:29:35;;;;;;;;;;;;;;;10.91;100.00;98529.23;110425;1212;125253;-67
2023/10/26 11:32:00;;;;;;;;;;;;;;;10.94;100.00;98528.63;110638;1212;97609;-68
2023/10/26 11:34:27;;;;;;;;;;;;;;;10.95;100.00;98532.84;110776;1210;97707;-68
2023/10/26 11:36:53;;;;;;;;;;;;;;;10.97;100.00;98535.58;110716;1208;125542;-68
2023/10/26 11:39:18;;;;;;;;;;;;;;;10.96;100.00;98534.38;110809;1212;97636;-68
2023/10/26 11:41:51;;;;;;;;;;;;;;;10.94;100.00;98533.27;110801;1212;126189;-68
2023/10/26 11:44:24;;;;;;;;;;;;;;;10.94;100.00;98536.68;110797;1212;106610;-69
2023/10/26 11:46:55;;;;;;;;;;;;;;;10.95;100.00;98532.84;110886;1212;97622;-68
2023/10/26 11:49:20;;;;;;;;;;;;;;;10.97;100.00;98532.48;110758;1212;99092;-68
2023/10/26 11:51:46;;;;;;;;;;;;;;;10.98;100.00;98529.16;110603;1208;97617;-68
2023/10/26 11:54:12;;;;;;;;;;;;;;;11.00;100.00;98526.55;110614;1213;125514;-68
2023/10/26 11:56:37;;;;;;;;;;;;;;;11.02;100.00;98525.34;110820;1213;97751;-69
2023/10/26 11:59:02;;;;;;;;;;;;;;;11.05;100.00;98521.85;110654;1208;125916;-69
2023/10/26 12:01:28;;;;;;;;;;;;;;;11.09;100.00;98522.46;110605;1211;99807;-68
2023/10/26 12:03:53;;;;;;;;;;;;;;;11.14;100.00;98524.00;110572;1208;96514;-69
2023/10/26 12:06:19;;;;;;;;;;;;;;;11.17;100.00;98520.73;110501;1212;125991;-68
2023/10/26 12:08:44;;;;;;;;;;;;;;;11.17;100.00;98525.88;110647;1208;97686;-68
2023/10/26 12:11:09;;;;;;;;;;;;;;;11.17;100.00;98524.66;110590;1208;125367;-68
2023/10/26 12:13:35;;;;;;;;;;;;;;;11.18;100.00;98529.41;110503;1212;99133;-69
2023/10/26 12:16:01;;;;;;;;;;;;;;;11.24;100.00;98527.85;110731;1208;97703;-68
2023/10/26 12:18:27;;;;;;;;;;;;;;;11.25;100.00;98524.92;110590;1214;124821;-69
2023/10/26 12:20:52;;;;;;;;;;;;;;;11.23;100.00;98523.08;110606;1212;98987;-68